sensor_id;sensor_type;location;lat;lon;timestamp;temperature;humidity
47114;DHT22;32867;51.556;6.832;2023-03-14T00:03:28;13.00;99.90
47114;DHT22;32867;51.556;6.832;2023-03-14T00:08:29;12.90;99.90
47114;DHT22;32867;51.556;6.832;2023-03-14T00:13:30;13.00;99.90
47114;DHT22;32867;51.556;6.832;2023-03-14T00:18:30;12.90;99.90
47114;DHT22;32867;51.556;6.832;2023-03-14T00:23:33;12.90;99.90
47114;DHT22;32867;51.556;6.832;2023-03-14T00:28:34;13.10;99.90
47114;DHT22;32867;51.556;6.832;2023-03-14T00:33:35;12.90;99.90
47114;DHT22;32867;51.556;6.832;2023-03-14T00:38:38;13.00;99.90
47114;DHT22;32867;51.556;6.832;2023-03-14T00:43:39;12.90;99.90
47114;DHT22;32867;51.556;6.832;2023-03-14T00:48:40;12.90;99.90
47114;DHT22;32867;51.556;6.832;2023-03-14T00:53:41;12.80;99.90
47114;DHT22;32867;51.556;6.832;2023-03-14T00:58:42;12.40;99.90
47114;DHT22;32867;51.556;6.832;2023-03-14T01:03:44;12.00;99.90
47114;DHT22;32867;51.556;6.832;2023-03-14T01:08:46;12.00;99.90
47114;DHT22;32867;51.556;6.832;2023-03-14T01:13:47;12.00;99.90
47114;DHT22;32867;51.556;6.832;2023-03-14T01:18:48;12.20;99.90
47114;DHT22;32867;51.556;6.832;2023-03-14T01:23:51;12.00;99.90
47114;DHT22;32867;51.556;6.832;2023-03-14T01:28:55;11.90;99.90
47114;DHT22;32867;51.556;6.832;2023-03-14T01:33:56;11.90;99.90
47114;DHT22;32867;51.556;6.832;2023-03-14T01:38:57;11.90;99.90
47114;DHT22;32867;51.556;6.832;2023-03-14T01:43:58;11.80;99.90
47114;DHT22;32867;51.556;6.832;2023-03-14T01:49:34;11.80;99.90
47114;DHT22;32867;51.556;6.832;2023-03-14T01:54:43;11.60;99.90
47114;DHT22;32867;51.556;6.832;2023-03-14T01:59:51;11.60;99.90
47114;DHT22;32867;51.556;6.832;2023-03-14T02:04:55;11.40;99.90
47114;DHT22;32867;51.556;6.832;2023-03-14T02:10:02;11.50;99.90
47114;DHT22;32867;51.556;6.832;2023-03-14T02:15:07;11.50;99.90
47114;DHT22;32867;51.556;6.832;2023-03-14T02:20:52;11.50;99.90
47114;DHT22;32867;51.556;6.832;2023-03-14T02:31:06;11.50;99.90
47114;DHT22;32867;51.556;6.832;2023-03-14T02:36:11;11.50;99.90
47114;DHT22;32867;51.556;6.832;2023-03-14T02:41:14;11.50;99.90
47114;DHT22;32867;51.556;6.832;2023-03-14T02:46:21;11.50;99.90
47114;DHT22;32867;51.556;6.832;2023-03-14T02:51:24;11.50;99.90
47114;DHT22;32867;51.556;6.832;2023-03-14T02:56:26;11.60;99.90
47114;DHT22;32867;51.556;6.832;2023-03-14T03:01:27;11.60;99.90
47114;DHT22;32867;51.556;6.832;2023-03-14T03:06:27;11.60;99.90
47114;DHT22;32867;51.556;6.832;2023-03-14T03:11:28;11.60;99.90
47114;DHT22;32867;51.556;6.832;2023-03-14T03:16:29;11.40;99.90
47114;DHT22;32867;51.556;6.832;2023-03-14T03:21:30;11.50;99.90
47114;DHT22;32867;51.556;6.832;2023-03-14T03:26:30;11.50;99.90
47114;DHT22;32867;51.556;6.832;2023-03-14T03:31:31;11.50;99.90
47114;DHT22;32867;51.556;6.832;2023-03-14T03:36:32;11.50;99.90
47114;DHT22;32867;51.556;6.832;2023-03-14T03:41:34;11.60;99.90
47114;DHT22;32867;51.556;6.832;2023-03-14T03:46:36;11.50;99.90
47114;DHT22;32867;51.556;6.832;2023-03-14T03:51:37;11.50;99.90
47114;DHT22;32867;51.556;6.832;2023-03-14T03:56:38;11.60;99.90
47114;DHT22;32867;51.556;6.832;2023-03-14T04:01:40;11.40;99.90
47114;DHT22;32867;51.556;6.832;2023-03-14T04:06:41;11.50;99.90
47114;DHT22;32867;51.556;6.832;2023-03-14T04:11:42;11.50;99.90
47114;DHT22;32867;51.556;6.832;2023-03-14T04:16:59;11.40;99.90
47114;DHT22;32867;51.556;6.832;2023-03-14T04:22:00;11.40;99.90
47114;DHT22;32867;51.556;6.832;2023-03-14T04:27:06;11.30;99.90
47114;DHT22;32867;51.556;6.832;2023-03-14T04:32:08;11.30;99.90
47114;DHT22;32867;51.556;6.832;2023-03-14T04:37:12;11.30;99.90
47114;DHT22;32867;51.556;6.832;2023-03-14T04:42:16;11.40;99.90
47114;DHT22;32867;51.556;6.832;2023-03-14T04:47:17;11.20;99.90
47114;DHT22;32867;51.556;6.832;2023-03-14T04:52:20;11.10;99.90
47114;DHT22;32867;51.556;6.832;2023-03-14T04:57:21;11.00;99.90
47114;DHT22;32867;51.556;6.832;2023-03-14T05:02:23;11.00;99.90
47114;DHT22;32867;51.556;6.832;2023-03-14T05:07:38;10.90;99.90
47114;DHT22;32867;51.556;6.832;2023-03-14T05:13:08;10.80;99.90
47114;DHT22;32867;51.556;6.832;2023-03-14T05:18:35;10.60;99.90
47114;DHT22;32867;51.556;6.832;2023-03-14T05:23:49;10.40;99.90
47114;DHT22;32867;51.556;6.832;2023-03-14T05:29:07;10.60;99.90
47114;DHT22;32867;51.556;6.832;2023-03-14T05:34:26;10.60;99.90
47114;DHT22;32867;51.556;6.832;2023-03-14T05:39:45;10.50;99.90
47114;DHT22;32867;51.556;6.832;2023-03-14T05:45:04;10.40;99.90
47114;DHT22;32867;51.556;6.832;2023-03-14T05:50:24;10.30;99.90
47114;DHT22;32867;51.556;6.832;2023-03-14T05:55:44;10.30;99.90
47114;DHT22;32867;51.556;6.832;2023-03-14T06:00:54;10.20;99.90
47114;DHT22;32867;51.556;6.832;2023-03-14T06:06:12;10.30;99.90
47114;DHT22;32867;51.556;6.832;2023-03-14T06:11:13;10.30;99.90
47114;DHT22;32867;51.556;6.832;2023-03-14T06:16:15;10.30;99.90
47114;DHT22;32867;51.556;6.832;2023-03-14T06:21:16;10.40;99.90
47114;DHT22;32867;51.556;6.832;2023-03-14T06:26:16;10.40;99.90
47114;DHT22;32867;51.556;6.832;2023-03-14T06:31:17;10.40;99.90
47114;DHT22;32867;51.556;6.832;2023-03-14T06:36:26;10.40;99.90
47114;DHT22;32867;51.556;6.832;2023-03-14T06:41:27;10.40;99.90
47114;DHT22;32867;51.556;6.832;2023-03-14T06:46:28;10.40;99.90
47114;DHT22;32867;51.556;6.832;2023-03-14T06:51:29;10.50;99.90
47114;DHT22;32867;51.556;6.832;2023-03-14T06:56:30;10.60;99.90
47114;DHT22;32867;51.556;6.832;2023-03-14T07:01:32;10.50;99.90
47114;DHT22;32867;51.556;6.832;2023-03-14T07:06:40;10.60;99.90
47114;DHT22;32867;51.556;6.832;2023-03-14T07:11:45;10.60;99.90
47114;DHT22;32867;51.556;6.832;2023-03-14T07:16:45;10.70;99.90
47114;DHT22;32867;51.556;6.832;2023-03-14T07:21:46;10.60;99.90
47114;DHT22;32867;51.556;6.832;2023-03-14T07:26:49;10.50;99.90
47114;DHT22;32867;51.556;6.832;2023-03-14T07:31:50;10.50;99.90
47114;DHT22;32867;51.556;6.832;2023-03-14T07:36:53;10.50;99.90
47114;DHT22;32867;51.556;6.832;2023-03-14T07:41:54;10.50;99.90
47114;DHT22;32867;51.556;6.832;2023-03-14T07:47:04;10.70;99.90
47114;DHT22;32867;51.556;6.832;2023-03-14T07:52:05;10.80;99.90
47114;DHT22;32867;51.556;6.832;2023-03-14T07:57:06;10.80;99.90
47114;DHT22;32867;51.556;6.832;2023-03-14T08:02:12;10.80;99.90
47114;DHT22;32867;51.556;6.832;2023-03-14T08:07:13;10.90;99.90
47114;DHT22;32867;51.556;6.832;2023-03-14T08:12:14;10.80;99.90
47114;DHT22;32867;51.556;6.832;2023-03-14T08:17:16;10.90;99.90
47114;DHT22;32867;51.556;6.832;2023-03-14T08:22:17;11.00;99.90
47114;DHT22;32867;51.556;6.832;2023-03-14T08:27:17;11.30;99.90
47114;DHT22;32867;51.556;6.832;2023-03-14T08:32:18;11.30;99.90
47114;DHT22;32867;51.556;6.832;2023-03-14T08:37:20;11.30;99.90
47114;DHT22;32867;51.556;6.832;2023-03-14T08:42:21;11.10;99.90
47114;DHT22;32867;51.556;6.832;2023-03-14T08:47:21;10.90;99.90
47114;DHT22;32867;51.556;6.832;2023-03-14T08:52:22;11.00;99.90
47114;DHT22;32867;51.556;6.832;2023-03-14T08:57:23;11.20;99.90
47114;DHT22;32867;51.556;6.832;2023-03-14T09:02:27;11.40;99.90
47114;DHT22;32867;51.556;6.832;2023-03-14T09:07:28;11.50;99.90
47114;DHT22;32867;51.556;6.832;2023-03-14T09:12:29;11.40;99.90
47114;DHT22;32867;51.556;6.832;2023-03-14T09:17:30;10.50;99.90
47114;DHT22;32867;51.556;6.832;2023-03-14T09:22:31;9.70;99.90
47114;DHT22;32867;51.556;6.832;2023-03-14T09:27:33;9.50;99.90
47114;DHT22;32867;51.556;6.832;2023-03-14T09:32:33;9.30;99.90
47114;DHT22;32867;51.556;6.832;2023-03-14T09:37:34;9.20;99.90
47114;DHT22;32867;51.556;6.832;2023-03-14T09:42:37;9.30;99.90
47114;DHT22;32867;51.556;6.832;2023-03-14T09:47:40;9.40;99.90
47114;DHT22;32867;51.556;6.832;2023-03-14T09:52:43;9.50;99.90
47114;DHT22;32867;51.556;6.832;2023-03-14T09:57:47;9.50;99.90
47114;DHT22;32867;51.556;6.832;2023-03-14T10:08:14;9.30;99.90
47114;DHT22;32867;51.556;6.832;2023-03-14T10:13:19;9.40;99.90
47114;DHT22;32867;51.556;6.832;2023-03-14T10:18:23;9.50;99.90
47114;DHT22;32867;51.556;6.832;2023-03-14T10:23:27;9.20;99.90
47114;DHT22;32867;51.556;6.832;2023-03-14T10:28:47;9.00;99.90
47114;DHT22;32867;51.556;6.832;2023-03-14T10:34:02;9.00;99.90
47114;DHT22;32867;51.556;6.832;2023-03-14T10:39:26;9.00;99.90
47114;DHT22;32867;51.556;6.832;2023-03-14T10:44:28;9.00;99.90
47114;DHT22;32867;51.556;6.832;2023-03-14T10:49:35;9.00;99.90
47114;DHT22;32867;51.556;6.832;2023-03-14T10:54:36;8.90;99.90
47114;DHT22;32867;51.556;6.832;2023-03-14T10:59:39;8.90;99.90
47114;DHT22;32867;51.556;6.832;2023-03-14T11:09:55;9.00;99.90
47114;DHT22;32867;51.556;6.832;2023-03-14T11:20:38;10.40;99.90
47114;DHT22;32867;51.556;6.832;2023-03-14T11:31:29;10.30;99.90
47114;DHT22;32867;51.556;6.832;2023-03-14T11:36:43;9.80;99.90
47114;DHT22;32867;51.556;6.832;2023-03-14T11:41:47;9.60;99.90
47114;DHT22;32867;51.556;6.832;2023-03-14T11:47:17;9.50;99.90
47114;DHT22;32867;51.556;6.832;2023-03-14T11:52:27;9.40;99.90
47114;DHT22;32867;51.556;6.832;2023-03-14T11:57:31;9.50;99.90
47114;DHT22;32867;51.556;6.832;2023-03-14T12:12:51;12.00;99.90
47114;DHT22;32867;51.556;6.832;2023-03-14T12:17:54;13.00;99.90
47114;DHT22;32867;51.556;6.832;2023-03-14T12:23:02;12.50;98.60
47114;DHT22;32867;51.556;6.832;2023-03-14T12:28:18;11.70;98.30
47114;DHT22;32867;51.556;6.832;2023-03-14T12:33:20;11.00;99.90
47114;DHT22;32867;51.556;6.832;2023-03-14T12:43:41;9.40;99.90
47114;DHT22;32867;51.556;6.832;2023-03-14T12:48:50;9.80;99.90
47114;DHT22;32867;51.556;6.832;2023-03-14T13:04:51;11.80;99.60
47114;DHT22;32867;51.556;6.832;2023-03-14T13:20:38;9.80;99.90
47114;DHT22;32867;51.556;6.832;2023-03-14T13:25:42;10.10;99.90
47114;DHT22;32867;51.556;6.832;2023-03-14T13:30:50;10.00;99.90
47114;DHT22;32867;51.556;6.832;2023-03-14T13:35:58;10.10;99.90
47114;DHT22;32867;51.556;6.832;2023-03-14T13:41:03;10.70;99.90
47114;DHT22;32867;51.556;6.832;2023-03-14T13:51:18;12.60;91.80
47114;DHT22;32867;51.556;6.832;2023-03-14T13:56:25;11.90;92.60
47114;DHT22;32867;51.556;6.832;2023-03-14T14:01:29;11.30;89.40
47114;DHT22;32867;51.556;6.832;2023-03-14T14:06:38;11.20;89.70
47114;DHT22;32867;51.556;6.832;2023-03-14T14:11:43;11.80;85.20
47114;DHT22;32867;51.556;6.832;2023-03-14T14:16:46;13.70;75.90
47114;DHT22;32867;51.556;6.832;2023-03-14T14:21:48;15.50;68.60
47114;DHT22;32867;51.556;6.832;2023-03-14T14:26:54;16.40;63.10
47114;DHT22;32867;51.556;6.832;2023-03-14T14:37:02;16.30;57.40
47114;DHT22;32867;51.556;6.832;2023-03-14T14:42:03;17.00;60.60
47114;DHT22;32867;51.556;6.832;2023-03-14T14:47:04;17.20;58.10
47114;DHT22;32867;51.556;6.832;2023-03-14T14:52:16;16.90;59.10
47114;DHT22;32867;51.556;6.832;2023-03-14T14:57:24;15.70;57.20
47114;DHT22;32867;51.556;6.832;2023-03-14T15:02:40;15.00;59.80
47114;DHT22;32867;51.556;6.832;2023-03-14T15:07:45;14.50;57.10
47114;DHT22;32867;51.556;6.832;2023-03-14T15:12:46;14.30;58.30
47114;DHT22;32867;51.556;6.832;2023-03-14T15:17:50;13.80;56.90
47114;DHT22;32867;51.556;6.832;2023-03-14T15:22:50;13.60;59.00
47114;DHT22;32867;51.556;6.832;2023-03-14T15:27:51;13.30;59.30
47114;DHT22;32867;51.556;6.832;2023-03-14T15:32:53;13.10;60.40
47114;DHT22;32867;51.556;6.832;2023-03-14T15:37:53;13.40;60.50
47114;DHT22;32867;51.556;6.832;2023-03-14T15:42:55;13.10;60.40
47114;DHT22;32867;51.556;6.832;2023-03-14T15:47:55;12.50;60.70
47114;DHT22;32867;51.556;6.832;2023-03-14T15:52:56;12.70;62.00
47114;DHT22;32867;51.556;6.832;2023-03-14T15:57:57;12.60;60.50
47114;DHT22;32867;51.556;6.832;2023-03-14T16:02:59;12.70;62.10
47114;DHT22;32867;51.556;6.832;2023-03-14T16:08:00;13.00;61.20
47114;DHT22;32867;51.556;6.832;2023-03-14T16:13:02;12.70;59.40
47114;DHT22;32867;51.556;6.832;2023-03-14T16:18:03;12.00;59.90
47114;DHT22;32867;51.556;6.832;2023-03-14T16:23:04;11.60;60.60
47114;DHT22;32867;51.556;6.832;2023-03-14T16:28:05;11.40;61.10
47114;DHT22;32867;51.556;6.832;2023-03-14T16:33:06;11.20;61.60
47114;DHT22;32867;51.556;6.832;2023-03-14T16:38:09;10.80;61.00
47114;DHT22;32867;51.556;6.832;2023-03-14T16:43:10;10.60;61.70
47114;DHT22;32867;51.556;6.832;2023-03-14T16:48:10;10.30;61.90
47114;DHT22;32867;51.556;6.832;2023-03-14T16:53:11;10.30;62.70
47114;DHT22;32867;51.556;6.832;2023-03-14T16:58:12;10.10;63.10
47114;DHT22;32867;51.556;6.832;2023-03-14T17:03:14;9.90;63.40
47114;DHT22;32867;51.556;6.832;2023-03-14T17:08:16;9.80;63.30
47114;DHT22;32867;51.556;6.832;2023-03-14T17:13:17;9.60;63.30
47114;DHT22;32867;51.556;6.832;2023-03-14T17:18:26;9.30;64.40
47114;DHT22;32867;51.556;6.832;2023-03-14T17:23:29;9.30;63.40
47114;DHT22;32867;51.556;6.832;2023-03-14T17:28:30;9.10;64.10
47114;DHT22;32867;51.556;6.832;2023-03-14T17:33:31;9.00;65.10
47114;DHT22;32867;51.556;6.832;2023-03-14T17:38:34;8.90;64.20
47114;DHT22;32867;51.556;6.832;2023-03-14T17:43:35;8.70;65.10
47114;DHT22;32867;51.556;6.832;2023-03-14T17:48:36;8.60;65.60
47114;DHT22;32867;51.556;6.832;2023-03-14T17:53:37;8.70;66.20
47114;DHT22;32867;51.556;6.832;2023-03-14T17:58:38;8.70;66.80
47114;DHT22;32867;51.556;6.832;2023-03-14T18:03:39;8.70;66.60
47114;DHT22;32867;51.556;6.832;2023-03-14T18:08:41;8.70;67.10
47114;DHT22;32867;51.556;6.832;2023-03-14T18:13:43;8.60;66.70
47114;DHT22;32867;51.556;6.832;2023-03-14T18:18:46;8.60;67.50
47114;DHT22;32867;51.556;6.832;2023-03-14T18:23:48;8.50;67.70
47114;DHT22;32867;51.556;6.832;2023-03-14T18:28:49;8.50;68.00
47114;DHT22;32867;51.556;6.832;2023-03-14T18:33:51;8.40;68.90
47114;DHT22;32867;51.556;6.832;2023-03-14T18:38:54;8.40;68.80
47114;DHT22;32867;51.556;6.832;2023-03-14T18:43:55;8.30;69.60
47114;DHT22;32867;51.556;6.832;2023-03-14T18:48:57;8.20;70.40
47114;DHT22;32867;51.556;6.832;2023-03-14T18:54:03;8.10;71.40
47114;DHT22;32867;51.556;6.832;2023-03-14T18:59:03;7.90;71.70
47114;DHT22;32867;51.556;6.832;2023-03-14T19:04:05;7.80;71.80
47114;DHT22;32867;51.556;6.832;2023-03-14T19:09:06;7.60;71.70
47114;DHT22;32867;51.556;6.832;2023-03-14T19:14:09;7.60;71.90
47114;DHT22;32867;51.556;6.832;2023-03-14T19:19:09;7.60;72.00
47114;DHT22;32867;51.556;6.832;2023-03-14T19:24:15;7.50;71.70
47114;DHT22;32867;51.556;6.832;2023-03-14T19:29:16;7.50;72.40
47114;DHT22;32867;51.556;6.832;2023-03-14T19:34:17;7.60;73.00
47114;DHT22;32867;51.556;6.832;2023-03-14T19:39:18;7.70;72.90
47114;DHT22;32867;51.556;6.832;2023-03-14T19:44:18;7.60;73.70
47114;DHT22;32867;51.556;6.832;2023-03-14T19:49:20;7.50;74.10
47114;DHT22;32867;51.556;6.832;2023-03-14T19:54:21;7.50;74.60
47114;DHT22;32867;51.556;6.832;2023-03-14T19:59:22;7.20;75.40
47114;DHT22;32867;51.556;6.832;2023-03-14T20:04:24;7.30;75.70
47114;DHT22;32867;51.556;6.832;2023-03-14T20:09:25;7.10;76.50
47114;DHT22;32867;51.556;6.832;2023-03-14T20:14:25;7.00;77.00
47114;DHT22;32867;51.556;6.832;2023-03-14T20:19:26;6.90;77.70
47114;DHT22;32867;51.556;6.832;2023-03-14T20:24:27;6.80;78.40
47114;DHT22;32867;51.556;6.832;2023-03-14T20:29:28;6.60;79.10
47114;DHT22;32867;51.556;6.832;2023-03-14T20:34:29;6.70;79.30
47114;DHT22;32867;51.556;6.832;2023-03-14T20:39:31;6.70;79.40
47114;DHT22;32867;51.556;6.832;2023-03-14T20:44:32;6.70;79.50
47114;DHT22;32867;51.556;6.832;2023-03-14T20:49:33;6.70;80.00
47114;DHT22;32867;51.556;6.832;2023-03-14T20:54:33;6.70;79.90
47114;DHT22;32867;51.556;6.832;2023-03-14T20:59:34;6.70;80.20
47114;DHT22;32867;51.556;6.832;2023-03-14T21:04:35;6.60;80.70
47114;DHT22;32867;51.556;6.832;2023-03-14T21:09:35;6.50;81.10
47114;DHT22;32867;51.556;6.832;2023-03-14T21:14:37;6.50;80.90
47114;DHT22;32867;51.556;6.832;2023-03-14T21:19:38;6.40;81.20
47114;DHT22;32867;51.556;6.832;2023-03-14T21:24:39;6.40;81.60
47114;DHT22;32867;51.556;6.832;2023-03-14T21:29:40;6.30;82.20
47114;DHT22;32867;51.556;6.832;2023-03-14T21:34:41;6.20;82.60
47114;DHT22;32867;51.556;6.832;2023-03-14T21:39:42;6.10;83.00
47114;DHT22;32867;51.556;6.832;2023-03-14T21:44:42;6.00;83.60
47114;DHT22;32867;51.556;6.832;2023-03-14T21:49:49;6.00;83.80
47114;DHT22;32867;51.556;6.832;2023-03-14T21:54:50;6.00;84.10
47114;DHT22;32867;51.556;6.832;2023-03-14T21:59:50;6.00;84.80
47114;DHT22;32867;51.556;6.832;2023-03-14T22:04:51;6.00;85.10
47114;DHT22;32867;51.556;6.832;2023-03-14T22:09:54;6.00;85.00
47114;DHT22;32867;51.556;6.832;2023-03-14T22:14:55;6.00;84.60
47114;DHT22;32867;51.556;6.832;2023-03-14T22:19:56;5.80;85.00
47114;DHT22;32867;51.556;6.832;2023-03-14T22:24:56;5.80;85.10
47114;DHT22;32867;51.556;6.832;2023-03-14T22:29:57;5.80;85.40
47114;DHT22;32867;51.556;6.832;2023-03-14T22:34:58;5.90;85.10
47114;DHT22;32867;51.556;6.832;2023-03-14T22:39:58;5.90;85.10
47114;DHT22;32867;51.556;6.832;2023-03-14T22:44:59;5.90;85.70
47114;DHT22;32867;51.556;6.832;2023-03-14T22:49:59;5.90;85.70
47114;DHT22;32867;51.556;6.832;2023-03-14T22:55:01;5.80;85.80
47114;DHT22;32867;51.556;6.832;2023-03-14T23:00:03;5.70;86.30
47114;DHT22;32867;51.556;6.832;2023-03-14T23:05:11;5.80;86.10
47114;DHT22;32867;51.556;6.832;2023-03-14T23:10:11;5.90;86.10
47114;DHT22;32867;51.556;6.832;2023-03-14T23:15:13;5.90;86.10
47114;DHT22;32867;51.556;6.832;2023-03-14T23:20:16;5.80;86.20
47114;DHT22;32867;51.556;6.832;2023-03-14T23:25:17;5.80;87.50
47114;DHT22;32867;51.556;6.832;2023-03-14T23:30:18;5.80;90.40
47114;DHT22;32867;51.556;6.832;2023-03-14T23:35:19;5.60;93.20
47114;DHT22;32867;51.556;6.832;2023-03-14T23:40:19;5.40;96.30
47114;DHT22;32867;51.556;6.832;2023-03-14T23:45:20;5.40;98.00
47114;DHT22;32867;51.556;6.832;2023-03-14T23:50:21;5.50;98.20
47114;DHT22;32867;51.556;6.832;2023-03-14T23:55:21;5.60;98.50
